sensor_id;sensor_type;location;lat;lon;timestamp;temperature;humidity
34558;DHT22;24708;48.888;8.736;2023-06-14T05:33:39;25.90;68.90
34558;DHT22;24708;48.888;8.736;2023-06-14T05:36:07;26.40;67.90
34558;DHT22;24708;48.888;8.736;2023-06-14T05:38:34;25.80;70.60
34558;DHT22;24708;48.888;8.736;2023-06-14T05:41:02;25.70;68.50
34558;DHT22;24708;48.888;8.736;2023-06-14T05:43:29;25.20;72.40
34558;DHT22;24708;48.888;8.736;2023-06-14T05:45:57;25.20;68.20
34558;DHT22;24708;48.888;8.736;2023-06-14T05:48:24;25.30;67.50
34558;DHT22;24708;48.888;8.736;2023-06-14T05:50:51;25.90;67.30
34558;DHT22;24708;48.888;8.736;2023-06-14T05:53:18;26.80;66.40
34558;DHT22;24708;48.888;8.736;2023-06-14T05:55:46;27.30;65.50
34558;DHT22;24708;48.888;8.736;2023-06-14T05:58:14;27.20;65.60
34558;DHT22;24708;48.888;8.736;2023-06-14T06:00:42;26.90;66.10
34558;DHT22;24708;48.888;8.736;2023-06-14T06:03:10;28.10;68.30
34558;DHT22;24708;48.888;8.736;2023-06-14T06:05:38;27.90;64.20
34558;DHT22;24708;48.888;8.736;2023-06-14T06:08:06;27.60;64.80
34558;DHT22;24708;48.888;8.736;2023-06-14T06:10:34;27.40;65.30
34558;DHT22;24708;48.888;8.736;2023-06-14T06:13:02;27.40;66.00
34558;DHT22;24708;48.888;8.736;2023-06-14T06:15:31;29.30;61.70
34558;DHT22;24708;48.888;8.736;2023-06-14T06:18:04;29.60;62.10
34558;DHT22;24708;48.888;8.736;2023-06-14T06:20:34;29.30;61.00
34558;DHT22;24708;48.888;8.736;2023-06-14T06:23:12;28.30;62.70
34558;DHT22;24708;48.888;8.736;2023-06-14T06:25:44;29.30;60.90
34558;DHT22;24708;48.888;8.736;2023-06-14T06:28:16;28.70;60.10
34558;DHT22;24708;48.888;8.736;2023-06-14T06:30:44;27.40;61.20
34558;DHT22;24708;48.888;8.736;2023-06-14T06:33:12;28.10;62.10
34558;DHT22;24708;48.888;8.736;2023-06-14T06:35:42;28.80;61.20
34558;DHT22;24708;48.888;8.736;2023-06-14T06:38:10;29.70;60.50
34558;DHT22;24708;48.888;8.736;2023-06-14T06:40:39;30.10;60.80
34558;DHT22;24708;48.888;8.736;2023-06-14T06:43:07;30.60;59.10
34558;DHT22;24708;48.888;8.736;2023-06-14T06:45:36;29.90;59.20
34558;DHT22;24708;48.888;8.736;2023-06-14T06:48:04;30.20;59.00
34558;DHT22;24708;48.888;8.736;2023-06-14T06:50:38;30.10;59.30
34558;DHT22;24708;48.888;8.736;2023-06-14T06:53:06;30.00;58.60
34558;DHT22;24708;48.888;8.736;2023-06-14T06:55:34;29.60;59.70
34558;DHT22;24708;48.888;8.736;2023-06-14T06:58:01;30.30;59.60
34558;DHT22;24708;48.888;8.736;2023-06-14T07:00:31;30.30;59.80
34558;DHT22;24708;48.888;8.736;2023-06-14T07:02:59;29.80;61.20
34558;DHT22;24708;48.888;8.736;2023-06-14T07:05:26;30.60;58.80
34558;DHT22;24708;48.888;8.736;2023-06-14T07:07:54;29.90;59.20
34558;DHT22;24708;48.888;8.736;2023-06-14T07:10:24;29.30;61.30
34558;DHT22;24708;48.888;8.736;2023-06-14T07:12:51;29.70;60.60
34558;DHT22;24708;48.888;8.736;2023-06-14T07:15:19;29.70;60.20
34558;DHT22;24708;48.888;8.736;2023-06-14T07:17:47;29.70;60.70
34558;DHT22;24708;48.888;8.736;2023-06-14T07:20:14;30.10;62.70
34558;DHT22;24708;48.888;8.736;2023-06-14T07:22:43;30.00;61.70
34558;DHT22;24708;48.888;8.736;2023-06-14T07:25:11;30.60;60.60
34558;DHT22;24708;48.888;8.736;2023-06-14T07:27:45;30.80;60.40
34558;DHT22;24708;48.888;8.736;2023-06-14T07:30:12;30.80;60.90
34558;DHT22;24708;48.888;8.736;2023-06-14T07:32:40;31.00;60.80
34558;DHT22;24708;48.888;8.736;2023-06-14T07:35:08;31.20;58.20
34558;DHT22;24708;48.888;8.736;2023-06-14T07:37:35;31.20;60.00
34558;DHT22;24708;48.888;8.736;2023-06-14T07:40:04;30.70;59.40
34558;DHT22;24708;48.888;8.736;2023-06-14T07:42:35;30.30;61.20
34558;DHT22;24708;48.888;8.736;2023-06-14T07:45:03;30.60;59.40
34558;DHT22;24708;48.888;8.736;2023-06-14T07:47:32;30.10;59.20
34558;DHT22;24708;48.888;8.736;2023-06-14T07:49:59;30.60;59.80
34558;DHT22;24708;48.888;8.736;2023-06-14T07:52:27;31.30;58.10
34558;DHT22;24708;48.888;8.736;2023-06-14T07:54:56;30.80;58.30
34558;DHT22;24708;48.888;8.736;2023-06-14T07:57:24;31.40;58.70
34558;DHT22;24708;48.888;8.736;2023-06-14T07:59:56;31.70;57.80
34558;DHT22;24708;48.888;8.736;2023-06-14T08:02:25;32.60;56.70
34558;DHT22;24708;48.888;8.736;2023-06-14T08:04:54;33.40;55.60
34558;DHT22;24708;48.888;8.736;2023-06-14T08:07:22;32.30;57.00
34558;DHT22;24708;48.888;8.736;2023-06-14T08:09:50;31.80;58.20
34558;DHT22;24708;48.888;8.736;2023-06-14T08:12:18;32.90;56.70
34558;DHT22;24708;48.888;8.736;2023-06-14T08:14:46;32.40;56.00
34558;DHT22;24708;48.888;8.736;2023-06-14T08:17:27;32.80;56.30
34558;DHT22;24708;48.888;8.736;2023-06-14T08:19:55;32.10;56.60
34558;DHT22;24708;48.888;8.736;2023-06-14T08:22:24;32.40;57.00
34558;DHT22;24708;48.888;8.736;2023-06-14T08:24:52;31.70;58.80
34558;DHT22;24708;48.888;8.736;2023-06-14T08:27:21;31.80;57.80
34558;DHT22;24708;48.888;8.736;2023-06-14T08:29:49;31.80;57.60
34558;DHT22;24708;48.888;8.736;2023-06-14T08:32:17;32.50;56.70
34558;DHT22;24708;48.888;8.736;2023-06-14T08:34:44;32.50;57.50
34558;DHT22;24708;48.888;8.736;2023-06-14T08:37:30;32.10;56.90
34558;DHT22;24708;48.888;8.736;2023-06-14T08:39:58;31.70;57.50
34558;DHT22;24708;48.888;8.736;2023-06-14T08:42:26;32.60;58.20
34558;DHT22;24708;48.888;8.736;2023-06-14T08:44:59;32.30;58.20
34558;DHT22;24708;48.888;8.736;2023-06-14T08:47:27;33.30;55.80
34558;DHT22;24708;48.888;8.736;2023-06-14T08:49:57;32.90;55.70
34558;DHT22;24708;48.888;8.736;2023-06-14T08:52:28;31.90;57.60
34558;DHT22;24708;48.888;8.736;2023-06-14T08:54:58;31.20;58.00
34558;DHT22;24708;48.888;8.736;2023-06-14T08:57:27;31.40;57.20
34558;DHT22;24708;48.888;8.736;2023-06-14T08:59:57;31.00;60.30
34558;DHT22;24708;48.888;8.736;2023-06-14T09:02:32;30.60;58.70
34558;DHT22;24708;48.888;8.736;2023-06-14T09:05:02;31.80;56.40
34558;DHT22;24708;48.888;8.736;2023-06-14T09:07:30;31.70;59.50
34558;DHT22;24708;48.888;8.736;2023-06-14T09:10:11;31.70;57.10
34558;DHT22;24708;48.888;8.736;2023-06-14T09:12:39;32.40;55.80
34558;DHT22;24708;48.888;8.736;2023-06-14T09:15:07;32.70;57.20
34558;DHT22;24708;48.888;8.736;2023-06-14T09:17:36;32.30;57.70
34558;DHT22;24708;48.888;8.736;2023-06-14T09:20:06;32.30;55.90
34558;DHT22;24708;48.888;8.736;2023-06-14T09:22:37;31.40;56.00
34558;DHT22;24708;48.888;8.736;2023-06-14T09:25:06;31.60;56.10
34558;DHT22;24708;48.888;8.736;2023-06-14T09:27:36;31.40;56.50
34558;DHT22;24708;48.888;8.736;2023-06-14T09:30:11;31.70;56.50
34558;DHT22;24708;48.888;8.736;2023-06-14T09:32:42;31.70;55.60
34558;DHT22;24708;48.888;8.736;2023-06-14T09:35:10;32.10;55.20
34558;DHT22;24708;48.888;8.736;2023-06-14T09:37:48;32.50;55.90
34558;DHT22;24708;48.888;8.736;2023-06-14T09:40:24;35.60;58.10
34558;DHT22;24708;48.888;8.736;2023-06-14T09:42:57;31.80;55.70
34558;DHT22;24708;48.888;8.736;2023-06-14T09:45:26;31.40;56.50
34558;DHT22;24708;48.888;8.736;2023-06-14T09:47:58;31.40;55.90
34558;DHT22;24708;48.888;8.736;2023-06-14T09:50:28;31.40;56.70
34558;DHT22;24708;48.888;8.736;2023-06-14T09:53:05;31.00;59.10
34558;DHT22;24708;48.888;8.736;2023-06-14T09:55:35;31.50;54.50
34558;DHT22;24708;48.888;8.736;2023-06-14T09:58:05;31.40;55.50
34558;DHT22;24708;48.888;8.736;2023-06-14T10:00:35;31.50;56.00
34558;DHT22;24708;48.888;8.736;2023-06-14T10:03:14;31.00;55.70
34558;DHT22;24708;48.888;8.736;2023-06-14T10:05:45;31.90;55.60
34558;DHT22;24708;48.888;8.736;2023-06-14T10:14:13;31.50;56.50
34558;DHT22;24708;48.888;8.736;2023-06-14T10:17:08;30.20;56.00
34558;DHT22;24708;48.888;8.736;2023-06-14T10:19:48;30.60;54.80
34558;DHT22;24708;48.888;8.736;2023-06-14T10:23:00;31.10;53.70
34558;DHT22;24708;48.888;8.736;2023-06-14T10:25:30;30.90;54.00
34558;DHT22;24708;48.888;8.736;2023-06-14T10:28:24;30.80;54.30
34558;DHT22;24708;48.888;8.736;2023-06-14T10:31:05;31.00;51.60
34558;DHT22;24708;48.888;8.736;2023-06-14T10:33:48;31.20;53.70
34558;DHT22;24708;48.888;8.736;2023-06-14T10:36:28;31.60;54.10
34558;DHT22;24708;48.888;8.736;2023-06-14T10:39:16;31.80;55.20
34558;DHT22;24708;48.888;8.736;2023-06-14T10:41:54;31.30;53.60
34558;DHT22;24708;48.888;8.736;2023-06-14T10:46:59;31.20;56.00
34558;DHT22;24708;48.888;8.736;2023-06-14T10:49:41;31.40;54.00
34558;DHT22;24708;48.888;8.736;2023-06-14T10:52:15;31.40;52.80
34558;DHT22;24708;48.888;8.736;2023-06-14T10:55:03;31.70;53.80
34558;DHT22;24708;48.888;8.736;2023-06-14T10:57:33;32.10;52.00
34558;DHT22;24708;48.888;8.736;2023-06-14T11:00:15;31.20;53.40
34558;DHT22;24708;48.888;8.736;2023-06-14T11:05:24;28.90;63.40
34558;DHT22;24708;48.888;8.736;2023-06-14T11:10:54;29.20;55.20
34558;DHT22;24708;48.888;8.736;2023-06-14T11:13:26;30.10;56.20
34558;DHT22;24708;48.888;8.736;2023-06-14T11:15:55;30.70;52.70
34558;DHT22;24708;48.888;8.736;2023-06-14T11:18:25;30.30;53.10
34558;DHT22;24708;48.888;8.736;2023-06-14T11:20:54;30.00;56.30
34558;DHT22;24708;48.888;8.736;2023-06-14T11:23:22;29.50;54.40
34558;DHT22;24708;48.888;8.736;2023-06-14T11:25:53;29.30;55.70
34558;DHT22;24708;48.888;8.736;2023-06-14T11:28:23;29.20;53.50
34558;DHT22;24708;48.888;8.736;2023-06-14T11:31:03;28.90;55.00
34558;DHT22;24708;48.888;8.736;2023-06-14T11:33:31;29.40;53.80
34558;DHT22;24708;48.888;8.736;2023-06-14T11:35:58;28.90;54.40
34558;DHT22;24708;48.888;8.736;2023-06-14T11:38:28;29.10;57.30
34558;DHT22;24708;48.888;8.736;2023-06-14T11:40:59;29.70;58.20
34558;DHT22;24708;48.888;8.736;2023-06-14T11:43:28;29.40;55.60
34558;DHT22;24708;48.888;8.736;2023-06-14T11:45:56;29.70;56.50
34558;DHT22;24708;48.888;8.736;2023-06-14T11:48:38;29.10;55.80
34558;DHT22;24708;48.888;8.736;2023-06-14T11:51:07;29.10;55.10
34558;DHT22;24708;48.888;8.736;2023-06-14T11:53:35;28.50;56.00
34558;DHT22;24708;48.888;8.736;2023-06-14T11:56:03;27.90;55.20
34558;DHT22;24708;48.888;8.736;2023-06-14T11:58:31;27.20;56.50
34558;DHT22;24708;48.888;8.736;2023-06-14T12:00:58;26.30;58.40
34558;DHT22;24708;48.888;8.736;2023-06-14T12:03:26;26.40;58.10
34558;DHT22;24708;48.888;8.736;2023-06-14T12:06:07;26.30;58.00
34558;DHT22;24708;48.888;8.736;2023-06-14T12:08:38;27.00;57.80
34558;DHT22;24708;48.888;8.736;2023-06-14T12:11:12;26.70;56.60
34558;DHT22;24708;48.888;8.736;2023-06-14T12:13:41;26.50;59.70
34558;DHT22;24708;48.888;8.736;2023-06-14T12:16:10;26.50;59.80
34558;DHT22;24708;48.888;8.736;2023-06-14T12:18:40;27.00;58.10
34558;DHT22;24708;48.888;8.736;2023-06-14T12:21:09;27.30;55.80
34558;DHT22;24708;48.888;8.736;2023-06-14T12:23:43;27.50;55.90
34558;DHT22;24708;48.888;8.736;2023-06-14T12:26:18;27.20;56.40
34558;DHT22;24708;48.888;8.736;2023-06-14T12:28:47;26.50;58.70
34558;DHT22;24708;48.888;8.736;2023-06-14T12:31:15;25.30;58.50
34558;DHT22;24708;48.888;8.736;2023-06-14T12:33:43;25.00;59.10
34558;DHT22;24708;48.888;8.736;2023-06-14T12:36:13;25.10;59.30
34558;DHT22;24708;48.888;8.736;2023-06-14T12:38:40;25.20;60.20
34558;DHT22;24708;48.888;8.736;2023-06-14T12:41:08;25.60;65.60
34558;DHT22;24708;48.888;8.736;2023-06-14T12:43:36;25.60;59.30
34558;DHT22;24708;48.888;8.736;2023-06-14T12:46:04;25.60;59.70
34558;DHT22;24708;48.888;8.736;2023-06-14T12:48:32;25.50;59.40
34558;DHT22;24708;48.888;8.736;2023-06-14T12:50:59;25.40;59.80
34558;DHT22;24708;48.888;8.736;2023-06-14T12:53:27;25.10;59.80
34558;DHT22;24708;48.888;8.736;2023-06-14T12:55:54;25.20;60.20
34558;DHT22;24708;48.888;8.736;2023-06-14T12:58:22;25.30;58.90
34558;DHT22;24708;48.888;8.736;2023-06-14T13:00:51;25.10;59.30
34558;DHT22;24708;48.888;8.736;2023-06-14T13:03:18;25.10;59.50
34558;DHT22;24708;48.888;8.736;2023-06-14T13:05:46;25.50;60.10
34558;DHT22;24708;48.888;8.736;2023-06-14T13:08:13;25.40;59.70
34558;DHT22;24708;48.888;8.736;2023-06-14T13:10:40;25.60;59.90
34558;DHT22;24708;48.888;8.736;2023-06-14T13:13:08;25.80;58.20
34558;DHT22;24708;48.888;8.736;2023-06-14T13:15:35;25.80;59.00
34558;DHT22;24708;48.888;8.736;2023-06-14T13:18:02;25.70;59.20
34558;DHT22;24708;48.888;8.736;2023-06-14T13:20:30;24.70;67.00
34558;DHT22;24708;48.888;8.736;2023-06-14T13:22:58;25.30;59.50
34558;DHT22;24708;48.888;8.736;2023-06-14T13:25:26;25.90;61.50
34558;DHT22;24708;48.888;8.736;2023-06-14T13:27:53;25.00;59.10
34558;DHT22;24708;48.888;8.736;2023-06-14T13:30:20;25.00;60.50
34558;DHT22;24708;48.888;8.736;2023-06-14T13:32:48;24.90;59.90
34558;DHT22;24708;48.888;8.736;2023-06-14T13:35:17;24.90;59.70
34558;DHT22;24708;48.888;8.736;2023-06-14T13:37:44;24.90;60.40
34558;DHT22;24708;48.888;8.736;2023-06-14T13:40:12;25.00;58.90
34558;DHT22;24708;48.888;8.736;2023-06-14T13:42:40;24.70;58.90
34558;DHT22;24708;48.888;8.736;2023-06-14T13:45:10;24.90;58.90
34558;DHT22;24708;48.888;8.736;2023-06-14T13:47:38;24.60;58.90
34558;DHT22;24708;48.888;8.736;2023-06-14T13:50:06;24.50;60.30
34558;DHT22;24708;48.888;8.736;2023-06-14T13:52:33;24.60;60.00
34558;DHT22;24708;48.888;8.736;2023-06-14T13:55:02;24.70;60.20
34558;DHT22;24708;48.888;8.736;2023-06-14T13:57:29;24.90;59.70
34558;DHT22;24708;48.888;8.736;2023-06-14T13:59:56;25.00;60.50
34558;DHT22;24708;48.888;8.736;2023-06-14T14:02:29;25.30;61.20
34558;DHT22;24708;48.888;8.736;2023-06-14T14:04:56;24.70;59.70
34558;DHT22;24708;48.888;8.736;2023-06-14T14:07:24;24.60;59.20
34558;DHT22;24708;48.888;8.736;2023-06-14T14:09:51;24.60;62.00
34558;DHT22;24708;48.888;8.736;2023-06-14T14:12:20;25.10;61.50
34558;DHT22;24708;48.888;8.736;2023-06-14T14:14:47;24.70;59.80
34558;DHT22;24708;48.888;8.736;2023-06-14T14:17:14;25.00;58.90
34558;DHT22;24708;48.888;8.736;2023-06-14T14:19:42;24.80;59.30
34558;DHT22;24708;48.888;8.736;2023-06-14T14:22:09;24.50;59.40
34558;DHT22;24708;48.888;8.736;2023-06-14T14:24:36;24.50;60.00
34558;DHT22;24708;48.888;8.736;2023-06-14T14:27:04;24.50;59.30
34558;DHT22;24708;48.888;8.736;2023-06-14T14:29:31;24.40;59.30
34558;DHT22;24708;48.888;8.736;2023-06-14T14:31:58;24.40;59.90
34558;DHT22;24708;48.888;8.736;2023-06-14T14:34:26;24.70;60.20
34558;DHT22;24708;48.888;8.736;2023-06-14T14:36:53;24.60;61.00
34558;DHT22;24708;48.888;8.736;2023-06-14T14:39:21;24.70;59.70
34558;DHT22;24708;48.888;8.736;2023-06-14T14:41:49;24.80;59.10
34558;DHT22;24708;48.888;8.736;2023-06-14T14:44:17;24.70;59.40
34558;DHT22;24708;48.888;8.736;2023-06-14T14:46:45;24.70;58.80
34558;DHT22;24708;48.888;8.736;2023-06-14T14:49:12;24.60;60.00
34558;DHT22;24708;48.888;8.736;2023-06-14T14:51:39;24.40;58.40
34558;DHT22;24708;48.888;8.736;2023-06-14T14:54:07;24.30;58.70
34558;DHT22;24708;48.888;8.736;2023-06-14T14:56:34;24.40;59.80
34558;DHT22;24708;48.888;8.736;2023-06-14T14:59:02;24.80;59.80
34558;DHT22;24708;48.888;8.736;2023-06-14T15:01:30;24.70;58.10
34558;DHT22;24708;48.888;8.736;2023-06-14T15:03:57;24.30;59.20
34558;DHT22;24708;48.888;8.736;2023-06-14T15:06:26;24.40;60.00
34558;DHT22;24708;48.888;8.736;2023-06-14T15:08:53;24.50;59.10
34558;DHT22;24708;48.888;8.736;2023-06-14T15:11:21;24.60;59.80
34558;DHT22;24708;48.888;8.736;2023-06-14T15:13:48;24.70;59.50
34558;DHT22;24708;48.888;8.736;2023-06-14T15:16:16;24.40;59.30
34558;DHT22;24708;48.888;8.736;2023-06-14T15:18:43;24.30;59.00
34558;DHT22;24708;48.888;8.736;2023-06-14T15:21:12;24.40;59.90
34558;DHT22;24708;48.888;8.736;2023-06-14T15:23:39;24.30;61.60
34558;DHT22;24708;48.888;8.736;2023-06-14T15:26:06;24.50;59.40
34558;DHT22;24708;48.888;8.736;2023-06-14T15:28:34;24.20;60.40
34558;DHT22;24708;48.888;8.736;2023-06-14T15:31:01;23.90;66.20
34558;DHT22;24708;48.888;8.736;2023-06-14T15:33:36;24.20;59.40
34558;DHT22;24708;48.888;8.736;2023-06-14T15:36:03;24.20;59.20
34558;DHT22;24708;48.888;8.736;2023-06-14T15:38:31;24.20;59.40
34558;DHT22;24708;48.888;8.736;2023-06-14T15:40:59;24.20;59.30
34558;DHT22;24708;48.888;8.736;2023-06-14T15:43:26;24.00;60.20
34558;DHT22;24708;48.888;8.736;2023-06-14T15:45:54;24.00;60.90
34558;DHT22;24708;48.888;8.736;2023-06-14T15:48:21;24.00;61.50
34558;DHT22;24708;48.888;8.736;2023-06-14T15:50:48;23.80;61.50
34558;DHT22;24708;48.888;8.736;2023-06-14T15:53:15;23.80;63.40
34558;DHT22;24708;48.888;8.736;2023-06-14T15:55:43;24.20;62.00
34558;DHT22;24708;48.888;8.736;2023-06-14T15:58:10;23.70;60.70
